sensor_id;sensor_type;location;lat;lon;timestamp;temperature;humidity
5675;DHT22;2860;54.284;10.158;2023-05-21T00:00:58;10.10;99.90
5675;DHT22;2860;54.284;10.158;2023-05-21T00:03:23;10.10;99.90
5675;DHT22;2860;54.284;10.158;2023-05-21T00:05:51;10.10;99.90
5675;DHT22;2860;54.284;10.158;2023-05-21T00:08:16;10.20;99.90
5675;DHT22;2860;54.284;10.158;2023-05-21T00:10:42;10.20;99.90
5675;DHT22;2860;54.284;10.158;2023-05-21T00:13:08;10.20;99.90
5675;DHT22;2860;54.284;10.158;2023-05-21T00:15:35;10.20;99.90
5675;DHT22;2860;54.284;10.158;2023-05-21T00:18:00;10.30;99.90
5675;DHT22;2860;54.284;10.158;2023-05-21T00:20:26;10.30;99.90
5675;DHT22;2860;54.284;10.158;2023-05-21T00:22:53;10.30;99.90
5675;DHT22;2860;54.284;10.158;2023-05-21T00:25:19;10.30;99.90
5675;DHT22;2860;54.284;10.158;2023-05-21T00:27:45;10.30;99.90
5675;DHT22;2860;54.284;10.158;2023-05-21T00:30:10;10.30;99.90
5675;DHT22;2860;54.284;10.158;2023-05-21T00:32:36;10.30;99.90
5675;DHT22;2860;54.284;10.158;2023-05-21T00:35:02;10.20;99.90
5675;DHT22;2860;54.284;10.158;2023-05-21T00:37:27;10.20;99.90
5675;DHT22;2860;54.284;10.158;2023-05-21T00:39:57;10.20;99.90
5675;DHT22;2860;54.284;10.158;2023-05-21T00:42:22;10.20;99.90
5675;DHT22;2860;54.284;10.158;2023-05-21T00:44:52;10.10;99.90
5675;DHT22;2860;54.284;10.158;2023-05-21T00:47:18;10.10;99.90
5675;DHT22;2860;54.284;10.158;2023-05-21T00:49:46;10.10;99.90
5675;DHT22;2860;54.284;10.158;2023-05-21T00:52:13;10.10;99.90
5675;DHT22;2860;54.284;10.158;2023-05-21T00:54:39;10.00;99.90
5675;DHT22;2860;54.284;10.158;2023-05-21T00:57:05;10.10;99.90
5675;DHT22;2860;54.284;10.158;2023-05-21T00:59:31;10.00;99.90
5675;DHT22;2860;54.284;10.158;2023-05-21T01:01:58;10.00;99.90
5675;DHT22;2860;54.284;10.158;2023-05-21T01:04:29;10.00;99.90
5675;DHT22;2860;54.284;10.158;2023-05-21T01:06:55;10.00;99.90
5675;DHT22;2860;54.284;10.158;2023-05-21T01:09:24;10.00;99.90
5675;DHT22;2860;54.284;10.158;2023-05-21T01:11:50;10.00;99.90
5675;DHT22;2860;54.284;10.158;2023-05-21T01:14:17;9.90;99.90
5675;DHT22;2860;54.284;10.158;2023-05-21T01:16:46;9.90;99.90
5675;DHT22;2860;54.284;10.158;2023-05-21T01:19:18;9.90;99.90
5675;DHT22;2860;54.284;10.158;2023-05-21T01:21:46;9.90;99.90
5675;DHT22;2860;54.284;10.158;2023-05-21T01:24:14;9.90;99.90
5675;DHT22;2860;54.284;10.158;2023-05-21T01:26:40;9.90;99.90
5675;DHT22;2860;54.284;10.158;2023-05-21T01:29:07;9.90;99.90
5675;DHT22;2860;54.284;10.158;2023-05-21T01:34:20;10.00;99.90
5675;DHT22;2860;54.284;10.158;2023-05-21T01:37:03;10.00;99.90
5675;DHT22;2860;54.284;10.158;2023-05-21T01:39:34;10.10;99.90
5675;DHT22;2860;54.284;10.158;2023-05-21T01:42:02;10.10;99.90
5675;DHT22;2860;54.284;10.158;2023-05-21T01:44:31;10.10;99.90
5675;DHT22;2860;54.284;10.158;2023-05-21T01:46:58;10.10;99.90
5675;DHT22;2860;54.284;10.158;2023-05-21T01:49:24;10.10;99.90
5675;DHT22;2860;54.284;10.158;2023-05-21T01:51:50;10.10;99.90
5675;DHT22;2860;54.284;10.158;2023-05-21T01:54:17;10.10;99.90
5675;DHT22;2860;54.284;10.158;2023-05-21T01:56:42;10.10;99.90
5675;DHT22;2860;54.284;10.158;2023-05-21T01:59:09;10.10;99.90
5675;DHT22;2860;54.284;10.158;2023-05-21T02:01:34;10.10;99.90
5675;DHT22;2860;54.284;10.158;2023-05-21T02:04:00;10.00;99.90
5675;DHT22;2860;54.284;10.158;2023-05-21T02:06:25;10.00;99.90
5675;DHT22;2860;54.284;10.158;2023-05-21T02:08:51;10.00;99.90
5675;DHT22;2860;54.284;10.158;2023-05-21T02:11:16;10.00;99.90
5675;DHT22;2860;54.284;10.158;2023-05-21T02:13:42;9.90;99.90
5675;DHT22;2860;54.284;10.158;2023-05-21T02:16:11;9.90;99.90
5675;DHT22;2860;54.284;10.158;2023-05-21T02:18:39;9.90;99.90
5675;DHT22;2860;54.284;10.158;2023-05-21T02:21:06;9.90;99.90
5675;DHT22;2860;54.284;10.158;2023-05-21T02:23:31;9.80;99.90
5675;DHT22;2860;54.284;10.158;2023-05-21T02:25:57;9.80;99.90
5675;DHT22;2860;54.284;10.158;2023-05-21T02:28:22;9.80;99.90
5675;DHT22;2860;54.284;10.158;2023-05-21T02:30:48;9.70;99.90
5675;DHT22;2860;54.284;10.158;2023-05-21T02:33:15;9.70;99.90
5675;DHT22;2860;54.284;10.158;2023-05-21T02:35:40;9.70;99.90
5675;DHT22;2860;54.284;10.158;2023-05-21T02:38:06;9.70;99.90
5675;DHT22;2860;54.284;10.158;2023-05-21T02:40:33;9.70;99.90
5675;DHT22;2860;54.284;10.158;2023-05-21T02:42:59;9.60;99.90
5675;DHT22;2860;54.284;10.158;2023-05-21T02:45:24;9.60;99.90
5675;DHT22;2860;54.284;10.158;2023-05-21T02:47:50;9.60;99.90
5675;DHT22;2860;54.284;10.158;2023-05-21T02:50:15;9.60;99.90
5675;DHT22;2860;54.284;10.158;2023-05-21T02:52:41;9.60;99.90
5675;DHT22;2860;54.284;10.158;2023-05-21T02:55:07;9.60;99.90
5675;DHT22;2860;54.284;10.158;2023-05-21T02:57:32;9.60;99.90
5675;DHT22;2860;54.284;10.158;2023-05-21T02:59:58;9.60;99.90
5675;DHT22;2860;54.284;10.158;2023-05-21T03:02:23;9.60;99.90
5675;DHT22;2860;54.284;10.158;2023-05-21T03:04:49;9.60;99.90
5675;DHT22;2860;54.284;10.158;2023-05-21T03:07:15;9.70;99.90
5675;DHT22;2860;54.284;10.158;2023-05-21T03:09:44;9.70;99.90
5675;DHT22;2860;54.284;10.158;2023-05-21T03:12:09;9.70;99.90
5675;DHT22;2860;54.284;10.158;2023-05-21T03:14:35;9.70;99.90
5675;DHT22;2860;54.284;10.158;2023-05-21T03:17:01;9.70;99.90
5675;DHT22;2860;54.284;10.158;2023-05-21T03:19:33;9.70;99.90
5675;DHT22;2860;54.284;10.158;2023-05-21T03:22:01;9.70;99.90
5675;DHT22;2860;54.284;10.158;2023-05-21T03:24:28;9.70;99.90
5675;DHT22;2860;54.284;10.158;2023-05-21T03:26:55;9.80;99.90
5675;DHT22;2860;54.284;10.158;2023-05-21T03:29:20;9.80;99.90
5675;DHT22;2860;54.284;10.158;2023-05-21T03:31:46;9.80;99.90
5675;DHT22;2860;54.284;10.158;2023-05-21T03:34:11;9.80;99.90
5675;DHT22;2860;54.284;10.158;2023-05-21T03:36:37;9.80;99.90
5675;DHT22;2860;54.284;10.158;2023-05-21T03:39:02;9.80;99.90
5675;DHT22;2860;54.284;10.158;2023-05-21T03:41:29;9.90;99.90
5675;DHT22;2860;54.284;10.158;2023-05-21T03:43:55;9.90;99.90
5675;DHT22;2860;54.284;10.158;2023-05-21T03:46:20;9.90;99.90
5675;DHT22;2860;54.284;10.158;2023-05-21T03:48:46;10.00;99.90
5675;DHT22;2860;54.284;10.158;2023-05-21T03:51:11;10.00;99.90
5675;DHT22;2860;54.284;10.158;2023-05-21T03:53:37;10.10;99.90
5675;DHT22;2860;54.284;10.158;2023-05-21T03:56:03;10.10;99.90
5675;DHT22;2860;54.284;10.158;2023-05-21T03:58:29;10.10;99.90
5675;DHT22;2860;54.284;10.158;2023-05-21T04:00:55;10.20;99.90
5675;DHT22;2860;54.284;10.158;2023-05-21T04:03:20;10.20;99.90
5675;DHT22;2860;54.284;10.158;2023-05-21T04:05:46;10.20;99.90
5675;DHT22;2860;54.284;10.158;2023-05-21T04:08:12;10.30;99.90
5675;DHT22;2860;54.284;10.158;2023-05-21T04:10:38;10.40;99.90
5675;DHT22;2860;54.284;10.158;2023-05-21T04:13:03;10.40;99.90
5675;DHT22;2860;54.284;10.158;2023-05-21T04:15:29;10.50;99.90
5675;DHT22;2860;54.284;10.158;2023-05-21T04:17:54;10.50;99.90
5675;DHT22;2860;54.284;10.158;2023-05-21T04:20:21;10.60;99.90
5675;DHT22;2860;54.284;10.158;2023-05-21T04:22:47;10.60;99.90
5675;DHT22;2860;54.284;10.158;2023-05-21T04:25:13;10.70;99.90
5675;DHT22;2860;54.284;10.158;2023-05-21T04:27:38;10.70;99.90
5675;DHT22;2860;54.284;10.158;2023-05-21T04:30:04;10.70;99.90
5675;DHT22;2860;54.284;10.158;2023-05-21T04:32:30;10.80;99.90
5675;DHT22;2860;54.284;10.158;2023-05-21T04:34:57;10.80;99.90
5675;DHT22;2860;54.284;10.158;2023-05-21T04:37:28;10.90;99.90
5675;DHT22;2860;54.284;10.158;2023-05-21T04:39:56;10.90;99.90
5675;DHT22;2860;54.284;10.158;2023-05-21T04:42:22;11.00;99.90
5675;DHT22;2860;54.284;10.158;2023-05-21T04:44:49;11.10;99.90
5675;DHT22;2860;54.284;10.158;2023-05-21T04:47:15;11.10;99.90
5675;DHT22;2860;54.284;10.158;2023-05-21T04:49:42;11.20;99.90
5675;DHT22;2860;54.284;10.158;2023-05-21T04:52:08;11.30;99.90
5675;DHT22;2860;54.284;10.158;2023-05-21T04:54:34;11.30;99.90
5675;DHT22;2860;54.284;10.158;2023-05-21T04:57:06;11.50;99.90
5675;DHT22;2860;54.284;10.158;2023-05-21T04:59:31;11.90;99.90
5675;DHT22;2860;54.284;10.158;2023-05-21T05:01:57;12.30;99.90
5675;DHT22;2860;54.284;10.158;2023-05-21T05:04:22;12.60;99.90
5675;DHT22;2860;54.284;10.158;2023-05-21T05:06:48;13.00;99.90
5675;DHT22;2860;54.284;10.158;2023-05-21T05:09:14;13.20;99.90
5675;DHT22;2860;54.284;10.158;2023-05-21T05:11:40;13.50;99.90
5675;DHT22;2860;54.284;10.158;2023-05-21T05:14:06;13.70;99.90
5675;DHT22;2860;54.284;10.158;2023-05-21T05:16:31;14.00;99.90
5675;DHT22;2860;54.284;10.158;2023-05-21T05:18:58;14.30;99.90
5675;DHT22;2860;54.284;10.158;2023-05-21T05:21:24;14.30;99.90
5675;DHT22;2860;54.284;10.158;2023-05-21T05:23:49;14.60;99.90
5675;DHT22;2860;54.284;10.158;2023-05-21T05:26:15;14.70;99.90
5675;DHT22;2860;54.284;10.158;2023-05-21T05:28:40;14.80;99.90
5675;DHT22;2860;54.284;10.158;2023-05-21T05:31:06;14.70;99.90
5675;DHT22;2860;54.284;10.158;2023-05-21T05:33:31;14.50;99.90
5675;DHT22;2860;54.284;10.158;2023-05-21T05:35:57;14.30;99.90
5675;DHT22;2860;54.284;10.158;2023-05-21T05:38:22;14.10;99.90
5675;DHT22;2860;54.284;10.158;2023-05-21T05:40:48;14.20;99.90
5675;DHT22;2860;54.284;10.158;2023-05-21T05:43:14;14.30;99.90
5675;DHT22;2860;54.284;10.158;2023-05-21T05:45:39;14.20;99.90
5675;DHT22;2860;54.284;10.158;2023-05-21T05:48:05;14.30;99.90
5675;DHT22;2860;54.284;10.158;2023-05-21T05:50:31;14.20;99.90
5675;DHT22;2860;54.284;10.158;2023-05-21T05:52:56;14.20;99.90
5675;DHT22;2860;54.284;10.158;2023-05-21T05:55:22;14.30;99.90
5675;DHT22;2860;54.284;10.158;2023-05-21T05:57:49;14.20;99.90
5675;DHT22;2860;54.284;10.158;2023-05-21T06:00:15;14.10;99.90
5675;DHT22;2860;54.284;10.158;2023-05-21T06:02:41;14.20;99.90
5675;DHT22;2860;54.284;10.158;2023-05-21T06:05:06;14.30;99.90
5675;DHT22;2860;54.284;10.158;2023-05-21T06:07:32;14.30;99.90
5675;DHT22;2860;54.284;10.158;2023-05-21T06:09:58;14.10;99.90
5675;DHT22;2860;54.284;10.158;2023-05-21T06:12:24;14.10;99.90
5675;DHT22;2860;54.284;10.158;2023-05-21T06:14:50;14.10;99.90
5675;DHT22;2860;54.284;10.158;2023-05-21T06:17:15;14.20;99.90
5675;DHT22;2860;54.284;10.158;2023-05-21T06:19:41;14.20;99.90
5675;DHT22;2860;54.284;10.158;2023-05-21T06:22:07;14.30;99.90
5675;DHT22;2860;54.284;10.158;2023-05-21T06:24:32;14.30;99.90
5675;DHT22;2860;54.284;10.158;2023-05-21T06:26:58;14.30;99.90
5675;DHT22;2860;54.284;10.158;2023-05-21T06:29:23;14.30;99.90
5675;DHT22;2860;54.284;10.158;2023-05-21T06:31:49;14.30;99.90
5675;DHT22;2860;54.284;10.158;2023-05-21T06:34:14;14.30;99.90
5675;DHT22;2860;54.284;10.158;2023-05-21T06:36:40;14.30;99.90
5675;DHT22;2860;54.284;10.158;2023-05-21T06:39:05;14.30;99.90
5675;DHT22;2860;54.284;10.158;2023-05-21T06:41:31;14.50;99.90
5675;DHT22;2860;54.284;10.158;2023-05-21T06:43:56;14.50;99.90
5675;DHT22;2860;54.284;10.158;2023-05-21T06:46:22;14.70;99.90
5675;DHT22;2860;54.284;10.158;2023-05-21T06:48:48;14.80;99.90
5675;DHT22;2860;54.284;10.158;2023-05-21T06:51:13;14.90;99.90
5675;DHT22;2860;54.284;10.158;2023-05-21T06:53:39;15.10;99.90
5675;DHT22;2860;54.284;10.158;2023-05-21T06:56:04;15.20;99.90
5675;DHT22;2860;54.284;10.158;2023-05-21T06:58:30;15.30;99.90
5675;DHT22;2860;54.284;10.158;2023-05-21T07:00:56;15.40;99.90
5675;DHT22;2860;54.284;10.158;2023-05-21T07:03:22;15.50;99.90
5675;DHT22;2860;54.284;10.158;2023-05-21T07:05:48;15.70;99.90
5675;DHT22;2860;54.284;10.158;2023-05-21T07:08:13;15.80;99.90
5675;DHT22;2860;54.284;10.158;2023-05-21T07:10:39;16.00;99.90
5675;DHT22;2860;54.284;10.158;2023-05-21T07:13:04;16.10;99.90
5675;DHT22;2860;54.284;10.158;2023-05-21T07:15:30;16.10;99.90
5675;DHT22;2860;54.284;10.158;2023-05-21T07:17:55;16.20;99.90
5675;DHT22;2860;54.284;10.158;2023-05-21T07:20:21;16.40;99.90
5675;DHT22;2860;54.284;10.158;2023-05-21T07:22:46;16.50;99.90
5675;DHT22;2860;54.284;10.158;2023-05-21T07:25:12;16.70;99.90
5675;DHT22;2860;54.284;10.158;2023-05-21T07:27:37;16.60;99.90
5675;DHT22;2860;54.284;10.158;2023-05-21T07:30:03;16.70;99.90
5675;DHT22;2860;54.284;10.158;2023-05-21T07:32:29;16.90;99.90
5675;DHT22;2860;54.284;10.158;2023-05-21T07:34:54;17.00;99.90
5675;DHT22;2860;54.284;10.158;2023-05-21T07:37:20;17.00;99.90
5675;DHT22;2860;54.284;10.158;2023-05-21T07:39:46;17.00;99.90
5675;DHT22;2860;54.284;10.158;2023-05-21T07:42:12;17.10;99.90
5675;DHT22;2860;54.284;10.158;2023-05-21T07:44:37;17.20;99.90
5675;DHT22;2860;54.284;10.158;2023-05-21T07:47:03;17.30;99.90
5675;DHT22;2860;54.284;10.158;2023-05-21T07:49:29;17.40;99.90
5675;DHT22;2860;54.284;10.158;2023-05-21T07:51:54;17.70;99.90
5675;DHT22;2860;54.284;10.158;2023-05-21T07:54:20;18.00;99.90
5675;DHT22;2860;54.284;10.158;2023-05-21T07:56:45;18.20;99.90
5675;DHT22;2860;54.284;10.158;2023-05-21T07:59:13;18.30;99.90
5675;DHT22;2860;54.284;10.158;2023-05-21T08:01:39;18.30;99.90
5675;DHT22;2860;54.284;10.158;2023-05-21T08:04:05;18.30;99.90
5675;DHT22;2860;54.284;10.158;2023-05-21T08:06:31;18.10;99.90
5675;DHT22;2860;54.284;10.158;2023-05-21T08:08:59;18.20;99.90
5675;DHT22;2860;54.284;10.158;2023-05-21T08:11:26;18.50;99.90
5675;DHT22;2860;54.284;10.158;2023-05-21T08:13:51;18.90;99.90
5675;DHT22;2860;54.284;10.158;2023-05-21T08:16:17;19.10;99.90
5675;DHT22;2860;54.284;10.158;2023-05-21T08:18:42;19.10;99.90
5675;DHT22;2860;54.284;10.158;2023-05-21T08:21:08;19.00;99.90
5675;DHT22;2860;54.284;10.158;2023-05-21T08:23:33;18.90;99.90
5675;DHT22;2860;54.284;10.158;2023-05-21T08:25:59;18.90;99.90
5675;DHT22;2860;54.284;10.158;2023-05-21T08:28:24;18.90;99.90
5675;DHT22;2860;54.284;10.158;2023-05-21T08:30:51;19.00;99.90
5675;DHT22;2860;54.284;10.158;2023-05-21T08:33:17;19.10;99.90
5675;DHT22;2860;54.284;10.158;2023-05-21T08:35:43;19.10;99.90
5675;DHT22;2860;54.284;10.158;2023-05-21T08:38:08;19.00;99.90
5675;DHT22;2860;54.284;10.158;2023-05-21T08:40:34;19.00;99.90
5675;DHT22;2860;54.284;10.158;2023-05-21T08:43:00;19.00;99.90
5675;DHT22;2860;54.284;10.158;2023-05-21T08:45:26;18.80;99.90
5675;DHT22;2860;54.284;10.158;2023-05-21T08:47:55;18.70;99.90
5675;DHT22;2860;54.284;10.158;2023-05-21T08:50:25;18.60;99.90
5675;DHT22;2860;54.284;10.158;2023-05-21T08:52:51;18.50;99.90
5675;DHT22;2860;54.284;10.158;2023-05-21T08:55:17;18.60;99.90
5675;DHT22;2860;54.284;10.158;2023-05-21T08:57:43;18.70;99.90
5675;DHT22;2860;54.284;10.158;2023-05-21T09:00:10;18.80;99.90
5675;DHT22;2860;54.284;10.158;2023-05-21T09:02:37;18.80;99.90
5675;DHT22;2860;54.284;10.158;2023-05-21T09:05:05;18.90;99.90
5675;DHT22;2860;54.284;10.158;2023-05-21T09:07:38;19.00;99.90
5675;DHT22;2860;54.284;10.158;2023-05-21T09:10:07;19.00;99.90
5675;DHT22;2860;54.284;10.158;2023-05-21T09:12:36;19.20;99.90
5675;DHT22;2860;54.284;10.158;2023-05-21T09:15:02;19.40;99.90
5675;DHT22;2860;54.284;10.158;2023-05-21T09:17:28;19.50;99.90
5675;DHT22;2860;54.284;10.158;2023-05-21T09:20:10;19.70;99.90
5675;DHT22;2860;54.284;10.158;2023-05-21T09:25:06;19.30;99.90
5675;DHT22;2860;54.284;10.158;2023-05-21T09:27:33;19.30;99.90
5675;DHT22;2860;54.284;10.158;2023-05-21T09:29:58;19.40;99.90
5675;DHT22;2860;54.284;10.158;2023-05-21T09:32:24;19.40;99.90
5675;DHT22;2860;54.284;10.158;2023-05-21T09:34:50;19.60;99.90
5675;DHT22;2860;54.284;10.158;2023-05-21T09:37:15;19.60;99.90
5675;DHT22;2860;54.284;10.158;2023-05-21T09:39:41;19.60;99.90
5675;DHT22;2860;54.284;10.158;2023-05-21T09:42:07;19.60;99.90
5675;DHT22;2860;54.284;10.158;2023-05-21T09:44:34;19.50;99.90
5675;DHT22;2860;54.284;10.158;2023-05-21T09:47:01;19.60;99.90
5675;DHT22;2860;54.284;10.158;2023-05-21T09:49:26;19.70;99.90
5675;DHT22;2860;54.284;10.158;2023-05-21T09:51:58;19.60;99.90
5675;DHT22;2860;54.284;10.158;2023-05-21T09:54:24;19.70;99.90
5675;DHT22;2860;54.284;10.158;2023-05-21T09:56:51;19.80;99.90
5675;DHT22;2860;54.284;10.158;2023-05-21T09:59:19;20.10;99.90
5675;DHT22;2860;54.284;10.158;2023-05-21T10:01:45;20.30;99.90
5675;DHT22;2860;54.284;10.158;2023-05-21T10:04:11;20.60;99.90
5675;DHT22;2860;54.284;10.158;2023-05-21T10:06:41;20.80;99.90
5675;DHT22;2860;54.284;10.158;2023-05-21T10:09:09;20.90;99.90
5675;DHT22;2860;54.284;10.158;2023-05-21T10:11:35;20.90;99.90
5675;DHT22;2860;54.284;10.158;2023-05-21T10:14:08;21.00;99.90
5675;DHT22;2860;54.284;10.158;2023-05-21T10:16:35;21.10;99.90
5675;DHT22;2860;54.284;10.158;2023-05-21T10:19:02;21.10;99.90
5675;DHT22;2860;54.284;10.158;2023-05-21T10:21:29;21.10;99.90
5675;DHT22;2860;54.284;10.158;2023-05-21T10:23:56;21.20;99.90
5675;DHT22;2860;54.284;10.158;2023-05-21T10:26:22;21.20;99.90
5675;DHT22;2860;54.284;10.158;2023-05-21T10:28:49;21.10;99.90
5675;DHT22;2860;54.284;10.158;2023-05-21T10:31:15;21.10;99.90
5675;DHT22;2860;54.284;10.158;2023-05-21T10:33:42;21.10;99.90
5675;DHT22;2860;54.284;10.158;2023-05-21T10:36:07;21.20;99.90
5675;DHT22;2860;54.284;10.158;2023-05-21T10:38:34;21.20;99.90
5675;DHT22;2860;54.284;10.158;2023-05-21T10:41:01;21.10;99.90
5675;DHT22;2860;54.284;10.158;2023-05-21T10:58:28;20.70;99.90
5675;DHT22;2860;54.284;10.158;2023-05-21T11:00:57;21.00;99.90
5675;DHT22;2860;54.284;10.158;2023-05-21T11:03:23;21.20;99.90
5675;DHT22;2860;54.284;10.158;2023-05-21T11:05:56;21.20;99.90
5675;DHT22;2860;54.284;10.158;2023-05-21T11:08:29;21.40;99.90
5675;DHT22;2860;54.284;10.158;2023-05-21T11:10:57;21.50;99.90
5675;DHT22;2860;54.284;10.158;2023-05-21T11:13:24;21.50;99.90
5675;DHT22;2860;54.284;10.158;2023-05-21T11:21:10;21.80;99.90
5675;DHT22;2860;54.284;10.158;2023-05-21T11:23:55;22.10;99.90
5675;DHT22;2860;54.284;10.158;2023-05-21T11:27:12;22.20;99.90
5675;DHT22;2860;54.284;10.158;2023-05-21T11:29:14;22.20;99.90
5675;DHT22;2860;54.284;10.158;2023-05-21T11:31:58;22.40;99.90
5675;DHT22;2860;54.284;10.158;2023-05-21T11:34:36;22.70;99.90
5675;DHT22;2860;54.284;10.158;2023-05-21T11:39:46;22.90;99.90
5675;DHT22;2860;54.284;10.158;2023-05-21T11:42:12;23.00;99.90
5675;DHT22;2860;54.284;10.158;2023-05-21T11:44:41;23.00;99.90
5675;DHT22;2860;54.284;10.158;2023-05-21T11:47:17;23.00;99.90
5675;DHT22;2860;54.284;10.158;2023-05-21T11:49:43;23.00;99.90
5675;DHT22;2860;54.284;10.158;2023-05-21T11:52:10;23.10;99.90
5675;DHT22;2860;54.284;10.158;2023-05-21T11:54:40;23.20;99.90
5675;DHT22;2860;54.284;10.158;2023-05-21T11:57:08;23.20;99.90
5675;DHT22;2860;54.284;10.158;2023-05-21T11:59:35;22.90;99.90
5675;DHT22;2860;54.284;10.158;2023-05-21T12:02:03;22.80;99.90
5675;DHT22;2860;54.284;10.158;2023-05-21T12:04:30;22.80;99.90
5675;DHT22;2860;54.284;10.158;2023-05-21T12:06:55;22.80;99.90
5675;DHT22;2860;54.284;10.158;2023-05-21T12:09:23;22.80;99.90
5675;DHT22;2860;54.284;10.158;2023-05-21T12:11:49;22.70;99.90
5675;DHT22;2860;54.284;10.158;2023-05-21T12:14:18;22.70;99.90
5675;DHT22;2860;54.284;10.158;2023-05-21T12:16:43;22.70;99.90
5675;DHT22;2860;54.284;10.158;2023-05-21T12:19:09;22.90;99.90
5675;DHT22;2860;54.284;10.158;2023-05-21T12:21:35;23.00;99.90
5675;DHT22;2860;54.284;10.158;2023-05-21T12:24:01;23.00;99.90
5675;DHT22;2860;54.284;10.158;2023-05-21T12:26:27;22.90;99.90
5675;DHT22;2860;54.284;10.158;2023-05-21T12:28:54;22.90;99.90
5675;DHT22;2860;54.284;10.158;2023-05-21T12:31:20;22.80;99.90
5675;DHT22;2860;54.284;10.158;2023-05-21T12:33:50;22.70;99.90
5675;DHT22;2860;54.284;10.158;2023-05-21T12:36:30;22.60;99.90
5675;DHT22;2860;54.284;10.158;2023-05-21T12:38:58;22.70;99.90
5675;DHT22;2860;54.284;10.158;2023-05-21T12:41:24;22.90;99.90
5675;DHT22;2860;54.284;10.158;2023-05-21T12:43:50;23.00;99.90
5675;DHT22;2860;54.284;10.158;2023-05-21T12:46:16;23.10;99.90
5675;DHT22;2860;54.284;10.158;2023-05-21T12:48:51;23.10;99.90
5675;DHT22;2860;54.284;10.158;2023-05-21T12:51:17;23.20;99.90
5675;DHT22;2860;54.284;10.158;2023-05-21T12:53:43;23.00;99.90
5675;DHT22;2860;54.284;10.158;2023-05-21T12:56:11;23.00;99.90
5675;DHT22;2860;54.284;10.158;2023-05-21T12:58:37;22.90;99.90
5675;DHT22;2860;54.284;10.158;2023-05-21T13:01:09;22.80;99.90
5675;DHT22;2860;54.284;10.158;2023-05-21T13:03:40;22.70;99.90
5675;DHT22;2860;54.284;10.158;2023-05-21T13:06:07;22.70;99.90
5675;DHT22;2860;54.284;10.158;2023-05-21T13:08:33;22.80;99.90
5675;DHT22;2860;54.284;10.158;2023-05-21T13:11:02;22.80;99.90
5675;DHT22;2860;54.284;10.158;2023-05-21T13:13:28;23.00;99.90
5675;DHT22;2860;54.284;10.158;2023-05-21T13:15:54;23.10;99.90
5675;DHT22;2860;54.284;10.158;2023-05-21T13:18:20;23.40;99.90
5675;DHT22;2860;54.284;10.158;2023-05-21T13:20:46;23.50;99.90
5675;DHT22;2860;54.284;10.158;2023-05-21T13:23:13;23.60;99.90
5675;DHT22;2860;54.284;10.158;2023-05-21T13:25:40;23.60;99.90
5675;DHT22;2860;54.284;10.158;2023-05-21T13:28:05;23.50;99.90
5675;DHT22;2860;54.284;10.158;2023-05-21T13:30:33;23.60;99.90
5675;DHT22;2860;54.284;10.158;2023-05-21T13:32:58;23.80;99.90
5675;DHT22;2860;54.284;10.158;2023-05-21T13:35:24;23.90;99.90
5675;DHT22;2860;54.284;10.158;2023-05-21T13:37:49;24.20;99.90
5675;DHT22;2860;54.284;10.158;2023-05-21T13:40:15;24.10;99.90
5675;DHT22;2860;54.284;10.158;2023-05-21T13:42:46;24.00;99.90
5675;DHT22;2860;54.284;10.158;2023-05-21T13:45:14;23.80;99.90
5675;DHT22;2860;54.284;10.158;2023-05-21T13:47:40;23.70;99.90
5675;DHT22;2860;54.284;10.158;2023-05-21T13:50:06;23.70;99.90
5675;DHT22;2860;54.284;10.158;2023-05-21T13:52:32;23.70;99.90
5675;DHT22;2860;54.284;10.158;2023-05-21T13:54:58;23.70;99.90
5675;DHT22;2860;54.284;10.158;2023-05-21T13:57:23;23.70;99.90
5675;DHT22;2860;54.284;10.158;2023-05-21T13:59:51;23.80;99.90
5675;DHT22;2860;54.284;10.158;2023-05-21T14:02:17;23.80;99.90
5675;DHT22;2860;54.284;10.158;2023-05-21T14:04:43;23.80;99.90
5675;DHT22;2860;54.284;10.158;2023-05-21T14:07:09;23.80;99.90
5675;DHT22;2860;54.284;10.158;2023-05-21T14:09:36;23.90;99.90
5675;DHT22;2860;54.284;10.158;2023-05-21T14:12:01;23.90;99.90
5675;DHT22;2860;54.284;10.158;2023-05-21T14:14:29;23.90;99.90
5675;DHT22;2860;54.284;10.158;2023-05-21T14:16:55;23.90;99.90
5675;DHT22;2860;54.284;10.158;2023-05-21T14:19:21;23.70;99.90
5675;DHT22;2860;54.284;10.158;2023-05-21T14:21:46;23.90;99.90
5675;DHT22;2860;54.284;10.158;2023-05-21T14:24:12;23.90;99.90
5675;DHT22;2860;54.284;10.158;2023-05-21T14:26:39;24.10;99.90
5675;DHT22;2860;54.284;10.158;2023-05-21T14:29:05;24.20;99.90
5675;DHT22;2860;54.284;10.158;2023-05-21T14:31:31;24.20;99.90
5675;DHT22;2860;54.284;10.158;2023-05-21T14:33:57;24.10;99.90
5675;DHT22;2860;54.284;10.158;2023-05-21T14:36:22;24.20;99.90
5675;DHT22;2860;54.284;10.158;2023-05-21T14:38:48;24.30;99.90
5675;DHT22;2860;54.284;10.158;2023-05-21T14:41:13;24.40;99.90
5675;DHT22;2860;54.284;10.158;2023-05-21T14:43:39;24.60;99.90
5675;DHT22;2860;54.284;10.158;2023-05-21T14:46:04;24.50;99.90
5675;DHT22;2860;54.284;10.158;2023-05-21T14:48:30;24.30;99.90
5675;DHT22;2860;54.284;10.158;2023-05-21T14:50:55;24.30;99.90
5675;DHT22;2860;54.284;10.158;2023-05-21T14:53:21;24.30;99.90
5675;DHT22;2860;54.284;10.158;2023-05-21T14:55:46;24.20;99.90
5675;DHT22;2860;54.284;10.158;2023-05-21T14:58:12;24.20;99.90
5675;DHT22;2860;54.284;10.158;2023-05-21T15:00:38;24.10;99.90
5675;DHT22;2860;54.284;10.158;2023-05-21T15:03:04;24.00;99.90
5675;DHT22;2860;54.284;10.158;2023-05-21T15:05:29;24.00;99.90
5675;DHT22;2860;54.284;10.158;2023-05-21T15:07:56;24.00;99.90
5675;DHT22;2860;54.284;10.158;2023-05-21T15:10:25;24.00;99.90
5675;DHT22;2860;54.284;10.158;2023-05-21T15:12:51;23.90;99.90
5675;DHT22;2860;54.284;10.158;2023-05-21T15:15:17;23.70;99.90
5675;DHT22;2860;54.284;10.158;2023-05-21T15:17:45;23.60;99.90
5675;DHT22;2860;54.284;10.158;2023-05-21T15:20:11;23.40;99.90
5675;DHT22;2860;54.284;10.158;2023-05-21T15:22:36;23.20;99.90
5675;DHT22;2860;54.284;10.158;2023-05-21T15:25:02;23.10;99.90
5675;DHT22;2860;54.284;10.158;2023-05-21T15:27:28;22.90;99.90
5675;DHT22;2860;54.284;10.158;2023-05-21T15:29:54;22.90;99.90
5675;DHT22;2860;54.284;10.158;2023-05-21T15:32:19;22.70;99.90
5675;DHT22;2860;54.284;10.158;2023-05-21T15:34:46;22.80;99.90
5675;DHT22;2860;54.284;10.158;2023-05-21T15:37:11;22.90;99.90
5675;DHT22;2860;54.284;10.158;2023-05-21T15:39:40;23.00;99.90
5675;DHT22;2860;54.284;10.158;2023-05-21T15:42:05;22.90;99.90
5675;DHT22;2860;54.284;10.158;2023-05-21T15:44:31;22.90;99.90
5675;DHT22;2860;54.284;10.158;2023-05-21T15:46:56;22.90;99.90
5675;DHT22;2860;54.284;10.158;2023-05-21T15:49:22;23.00;99.90
5675;DHT22;2860;54.284;10.158;2023-05-21T15:51:47;23.10;99.90
5675;DHT22;2860;54.284;10.158;2023-05-21T15:54:13;23.20;99.90
5675;DHT22;2860;54.284;10.158;2023-05-21T15:56:42;23.20;99.90
5675;DHT22;2860;54.284;10.158;2023-05-21T15:59:08;23.30;99.90
5675;DHT22;2860;54.284;10.158;2023-05-21T16:01:34;23.40;99.90
5675;DHT22;2860;54.284;10.158;2023-05-21T16:04:00;23.40;99.90
5675;DHT22;2860;54.284;10.158;2023-05-21T16:06:27;23.40;99.90
5675;DHT22;2860;54.284;10.158;2023-05-21T16:08:52;23.40;99.90
5675;DHT22;2860;54.284;10.158;2023-05-21T16:11:18;23.20;99.90